sensor_id;sensor_type;location;lat;lon;timestamp;P1;durP1;ratioP1;P2;durP2;ratioP2
9964;SDS011;5023;53.554;9.964;2023-11-19T00:00:00;16.57;;;13.03;;
9964;SDS011;5023;53.554;9.964;2023-11-19T00:05:04;10.50;;;9.07;;
9964;SDS011;5023;53.554;9.964;2023-11-19T00:10:09;9.70;;;8.23;;
9964;SDS011;5023;53.554;9.964;2023-11-19T00:15:12;9.63;;;7.83;;
9964;SDS011;5023;53.554;9.964;2023-11-19T00:20:15;13.97;;;11.23;;
9964;SDS011;5023;53.554;9.964;2023-11-19T00:25:18;10.33;;;8.80;;
9964;SDS011;5023;53.554;9.964;2023-11-19T00:30:22;7.30;;;6.60;;
9964;SDS011;5023;53.554;9.964;2023-11-19T00:35:24;7.00;;;6.30;;
9964;SDS011;5023;53.554;9.964;2023-11-19T00:40:26;6.93;;;5.77;;
9964;SDS011;5023;53.554;9.964;2023-11-19T00:45:30;7.83;;;7.03;;
9964;SDS011;5023;53.554;9.964;2023-11-19T00:50:31;7.97;;;7.03;;
9964;SDS011;5023;53.554;9.964;2023-11-19T00:55:33;8.00;;;7.20;;
9964;SDS011;5023;53.554;9.964;2023-11-19T01:00:37;8.63;;;6.97;;
9964;SDS011;5023;53.554;9.964;2023-11-19T01:05:38;8.87;;;7.60;;
9964;SDS011;5023;53.554;9.964;2023-11-19T01:10:40;6.07;;;5.47;;
9964;SDS011;5023;53.554;9.964;2023-11-19T01:15:44;7.10;;;6.03;;
9964;SDS011;5023;53.554;9.964;2023-11-19T01:20:45;5.20;;;4.33;;
9964;SDS011;5023;53.554;9.964;2023-11-19T01:25:47;6.70;;;6.03;;
9964;SDS011;5023;53.554;9.964;2023-11-19T01:30:51;6.90;;;5.83;;
9964;SDS011;5023;53.554;9.964;2023-11-19T01:35:53;5.73;;;5.13;;
9964;SDS011;5023;53.554;9.964;2023-11-19T01:40:58;4.63;;;4.23;;
9964;SDS011;5023;53.554;9.964;2023-11-19T01:46:04;4.17;;;3.63;;
9964;SDS011;5023;53.554;9.964;2023-11-19T01:51:06;4.07;;;3.67;;
9964;SDS011;5023;53.554;9.964;2023-11-19T01:56:09;3.13;;;2.93;;
9964;SDS011;5023;53.554;9.964;2023-11-19T02:01:16;7.77;;;6.13;;
9964;SDS011;5023;53.554;9.964;2023-11-19T02:06:18;18.33;;;12.57;;
9964;SDS011;5023;53.554;9.964;2023-11-19T02:11:20;15.37;;;11.47;;
9964;SDS011;5023;53.554;9.964;2023-11-19T02:16:23;3.90;;;3.50;;
9964;SDS011;5023;53.554;9.964;2023-11-19T02:21:26;3.50;;;3.20;;
9964;SDS011;5023;53.554;9.964;2023-11-19T02:26:29;4.13;;;3.73;;
9964;SDS011;5023;53.554;9.964;2023-11-19T02:31:36;4.27;;;3.67;;
9964;SDS011;5023;53.554;9.964;2023-11-19T02:36:38;3.60;;;3.30;;
9964;SDS011;5023;53.554;9.964;2023-11-19T02:41:41;8.37;;;6.27;;
9964;SDS011;5023;53.554;9.964;2023-11-19T02:46:44;3.40;;;3.10;;
9964;SDS011;5023;53.554;9.964;2023-11-19T02:51:48;5.20;;;4.70;;
9964;SDS011;5023;53.554;9.964;2023-11-19T02:56:50;6.93;;;5.37;;
9964;SDS011;5023;53.554;9.964;2023-11-19T03:01:56;3.13;;;2.93;;
9964;SDS011;5023;53.554;9.964;2023-11-19T03:06:59;3.13;;;2.90;;
9964;SDS011;5023;53.554;9.964;2023-11-19T03:12:02;2.80;;;2.60;;
9964;SDS011;5023;53.554;9.964;2023-11-19T03:17:07;3.17;;;2.97;;
9964;SDS011;5023;53.554;9.964;2023-11-19T03:22:10;5.13;;;4.00;;
9964;SDS011;5023;53.554;9.964;2023-11-19T03:27:12;4.07;;;3.77;;
9964;SDS011;5023;53.554;9.964;2023-11-19T03:32:16;4.13;;;3.80;;
9964;SDS011;5023;53.554;9.964;2023-11-19T03:37:17;4.30;;;3.90;;
9964;SDS011;5023;53.554;9.964;2023-11-19T03:42:19;4.20;;;3.80;;
9964;SDS011;5023;53.554;9.964;2023-11-19T03:47:23;7.50;;;6.33;;
9964;SDS011;5023;53.554;9.964;2023-11-19T03:52:25;4.67;;;4.20;;
9964;SDS011;5023;53.554;9.964;2023-11-19T03:57:27;5.10;;;4.60;;
9964;SDS011;5023;53.554;9.964;2023-11-19T04:02:30;4.00;;;3.73;;
9964;SDS011;5023;53.554;9.964;2023-11-19T04:07:32;4.20;;;3.90;;
9964;SDS011;5023;53.554;9.964;2023-11-19T04:12:34;4.03;;;3.73;;
9964;SDS011;5023;53.554;9.964;2023-11-19T04:17:38;4.03;;;3.63;;
9964;SDS011;5023;53.554;9.964;2023-11-19T04:22:40;4.33;;;3.97;;
9964;SDS011;5023;53.554;9.964;2023-11-19T04:27:42;4.20;;;3.90;;
9964;SDS011;5023;53.554;9.964;2023-11-19T04:32:45;4.17;;;3.87;;
9964;SDS011;5023;53.554;9.964;2023-11-19T04:37:48;4.87;;;4.37;;
9964;SDS011;5023;53.554;9.964;2023-11-19T04:42:51;4.90;;;4.50;;
9964;SDS011;5023;53.554;9.964;2023-11-19T04:47:54;5.20;;;4.80;;
9964;SDS011;5023;53.554;9.964;2023-11-19T04:52:56;6.30;;;5.70;;
9964;SDS011;5023;53.554;9.964;2023-11-19T04:57:58;6.87;;;5.73;;
9964;SDS011;5023;53.554;9.964;2023-11-19T05:03:01;8.00;;;6.40;;
9964;SDS011;5023;53.554;9.964;2023-11-19T05:08:03;8.17;;;7.07;;
9964;SDS011;5023;53.554;9.964;2023-11-19T05:13:05;9.43;;;7.53;;
9964;SDS011;5023;53.554;9.964;2023-11-19T05:18:08;8.63;;;7.73;;
9964;SDS011;5023;53.554;9.964;2023-11-19T05:23:10;10.03;;;8.83;;
9964;SDS011;5023;53.554;9.964;2023-11-19T05:28:12;15.17;;;11.30;;
9964;SDS011;5023;53.554;9.964;2023-11-19T05:33:16;17.57;;;12.50;;
9964;SDS011;5023;53.554;9.964;2023-11-19T05:38:18;15.90;;;12.40;;
9964;SDS011;5023;53.554;9.964;2023-11-19T05:43:21;26.83;;;16.97;;
9964;SDS011;5023;53.554;9.964;2023-11-19T05:48:25;26.90;;;16.73;;
9964;SDS011;5023;53.554;9.964;2023-11-19T05:53:28;24.73;;;17.80;;
9964;SDS011;5023;53.554;9.964;2023-11-19T05:58:30;28.60;;;17.10;;
9964;SDS011;5023;53.554;9.964;2023-11-19T06:03:34;27.35;;;17.13;;
9964;SDS011;5023;53.554;9.964;2023-11-19T06:08:36;27.80;;;17.05;;
9964;SDS011;5023;53.554;9.964;2023-11-19T06:13:38;26.95;;;15.55;;
9964;SDS011;5023;53.554;9.964;2023-11-19T06:18:42;28.42;;;15.93;;
9964;SDS011;5023;53.554;9.964;2023-11-19T06:23:44;25.58;;;14.50;;
9964;SDS011;5023;53.554;9.964;2023-11-19T06:28:46;22.15;;;14.07;;
9964;SDS011;5023;53.554;9.964;2023-11-19T06:33:49;28.15;;;13.60;;
9964;SDS011;5023;53.554;9.964;2023-11-19T06:38:51;26.67;;;13.07;;
9964;SDS011;5023;53.554;9.964;2023-11-19T06:43:53;27.27;;;12.05;;
9964;SDS011;5023;53.554;9.964;2023-11-19T06:48:56;25.83;;;12.35;;
9964;SDS011;5023;53.554;9.964;2023-11-19T06:53:58;21.42;;;11.30;;
9964;SDS011;5023;53.554;9.964;2023-11-19T06:59:01;20.70;;;10.05;;
9964;SDS011;5023;53.554;9.964;2023-11-19T07:04:04;22.30;;;10.52;;
9964;SDS011;5023;53.554;9.964;2023-11-19T07:09:09;25.95;;;10.15;;
9964;SDS011;5023;53.554;9.964;2023-11-19T07:14:11;25.25;;;9.13;;
9964;SDS011;5023;53.554;9.964;2023-11-19T07:19:14;23.80;;;8.82;;
9964;SDS011;5023;53.554;9.964;2023-11-19T07:24:16;21.60;;;7.95;;
9964;SDS011;5023;53.554;9.964;2023-11-19T07:29:18;18.98;;;7.53;;
9964;SDS011;5023;53.554;9.964;2023-11-19T07:34:23;17.83;;;6.60;;
9964;SDS011;5023;53.554;9.964;2023-11-19T07:39:25;16.27;;;5.60;;
9964;SDS011;5023;53.554;9.964;2023-11-19T07:44:27;20.88;;;6.35;;
9964;SDS011;5023;53.554;9.964;2023-11-19T07:49:31;19.27;;;6.38;;
9964;SDS011;5023;53.554;9.964;2023-11-19T07:54:33;19.27;;;6.50;;
9964;SDS011;5023;53.554;9.964;2023-11-19T07:59:34;21.25;;;5.93;;
9964;SDS011;5023;53.554;9.964;2023-11-19T08:04:38;24.60;;;6.30;;
9964;SDS011;5023;53.554;9.964;2023-11-19T08:09:44;24.52;;;7.05;;
9964;SDS011;5023;53.554;9.964;2023-11-19T08:14:47;23.38;;;6.80;;
9964;SDS011;5023;53.554;9.964;2023-11-19T08:19:50;21.20;;;6.55;;
9964;SDS011;5023;53.554;9.964;2023-11-19T08:24:52;27.25;;;7.22;;
9964;SDS011;5023;53.554;9.964;2023-11-19T08:29:54;31.27;;;6.30;;
9964;SDS011;5023;53.554;9.964;2023-11-19T08:34:58;19.92;;;6.07;;
9964;SDS011;5023;53.554;9.964;2023-11-19T08:40:00;20.10;;;5.40;;
9964;SDS011;5023;53.554;9.964;2023-11-19T08:45:04;23.58;;;6.13;;
9964;SDS011;5023;53.554;9.964;2023-11-19T08:50:08;25.15;;;5.53;;
9964;SDS011;5023;53.554;9.964;2023-11-19T08:55:11;20.05;;;5.75;;
9964;SDS011;5023;53.554;9.964;2023-11-19T09:00:13;22.65;;;5.93;;
9964;SDS011;5023;53.554;9.964;2023-11-19T09:05:17;26.02;;;6.30;;
9964;SDS011;5023;53.554;9.964;2023-11-19T09:10:19;27.92;;;6.10;;
9964;SDS011;5023;53.554;9.964;2023-11-19T09:15:21;27.48;;;7.13;;
9964;SDS011;5023;53.554;9.964;2023-11-19T09:20:24;22.33;;;5.78;;
9964;SDS011;5023;53.554;9.964;2023-11-19T09:25:26;20.20;;;5.75;;
9964;SDS011;5023;53.554;9.964;2023-11-19T09:30:28;24.85;;;5.80;;
9964;SDS011;5023;53.554;9.964;2023-11-19T09:35:31;30.42;;;7.88;;
9964;SDS011;5023;53.554;9.964;2023-11-19T09:40:33;24.35;;;6.13;;
9964;SDS011;5023;53.554;9.964;2023-11-19T09:45:37;27.48;;;6.38;;
9964;SDS011;5023;53.554;9.964;2023-11-19T09:50:49;25.38;;;6.45;;
9964;SDS011;5023;53.554;9.964;2023-11-19T09:55:53;26.10;;;6.53;;
9964;SDS011;5023;53.554;9.964;2023-11-19T10:00:55;27.85;;;6.43;;
9964;SDS011;5023;53.554;9.964;2023-11-19T10:06:00;25.88;;;5.95;;
9964;SDS011;5023;53.554;9.964;2023-11-19T10:11:02;23.88;;;6.60;;
9964;SDS011;5023;53.554;9.964;2023-11-19T10:16:07;24.35;;;6.22;;
9964;SDS011;5023;53.554;9.964;2023-11-19T10:21:13;32.33;;;7.00;;
9964;SDS011;5023;53.554;9.964;2023-11-19T10:26:17;23.95;;;6.13;;
9964;SDS011;5023;53.554;9.964;2023-11-19T10:31:20;34.05;;;7.47;;
9964;SDS011;5023;53.554;9.964;2023-11-19T10:36:38;24.75;;;6.43;;
9964;SDS011;5023;53.554;9.964;2023-11-19T10:41:41;21.85;;;6.10;;
9964;SDS011;5023;53.554;9.964;2023-11-19T10:46:43;24.20;;;5.70;;
9964;SDS011;5023;53.554;9.964;2023-11-19T10:51:46;25.58;;;6.57;;
9964;SDS011;5023;53.554;9.964;2023-11-19T10:56:49;22.77;;;6.78;;
9964;SDS011;5023;53.554;9.964;2023-11-19T11:01:58;26.90;;;6.50;;
9964;SDS011;5023;53.554;9.964;2023-11-19T11:07:03;27.10;;;6.22;;
9964;SDS011;5023;53.554;9.964;2023-11-19T11:12:06;24.13;;;6.25;;
9964;SDS011;5023;53.554;9.964;2023-11-19T11:17:10;25.35;;;5.80;;
9964;SDS011;5023;53.554;9.964;2023-11-19T11:22:15;25.23;;;5.93;;
9964;SDS011;5023;53.554;9.964;2023-11-19T11:27:24;27.95;;;6.05;;
9964;SDS011;5023;53.554;9.964;2023-11-19T11:32:48;31.00;;;5.90;;
9964;SDS011;5023;53.554;9.964;2023-11-19T11:38:03;27.35;;;6.70;;
9964;SDS011;5023;53.554;9.964;2023-11-19T11:48:43;24.42;;;6.43;;
9964;SDS011;5023;53.554;9.964;2023-11-19T11:53:49;24.42;;;5.78;;
9964;SDS011;5023;53.554;9.964;2023-11-19T11:58:53;24.90;;;6.50;;
9964;SDS011;5023;53.554;9.964;2023-11-19T12:03:56;23.35;;;7.03;;
9964;SDS011;5023;53.554;9.964;2023-11-19T12:09:00;24.80;;;5.80;;
9964;SDS011;5023;53.554;9.964;2023-11-19T12:14:03;24.58;;;6.28;;
9964;SDS011;5023;53.554;9.964;2023-11-19T12:19:06;20.55;;;7.13;;
9964;SDS011;5023;53.554;9.964;2023-11-19T12:24:10;23.30;;;5.72;;
9964;SDS011;5023;53.554;9.964;2023-11-19T12:29:12;26.20;;;6.53;;
9964;SDS011;5023;53.554;9.964;2023-11-19T12:34:14;24.38;;;6.10;;
9964;SDS011;5023;53.554;9.964;2023-11-19T12:39:17;21.48;;;5.40;;
9964;SDS011;5023;53.554;9.964;2023-11-19T12:44:21;22.40;;;5.57;;
9964;SDS011;5023;53.554;9.964;2023-11-19T12:49:23;23.13;;;6.20;;
9964;SDS011;5023;53.554;9.964;2023-11-19T12:54:33;18.70;;;5.55;;
9964;SDS011;5023;53.554;9.964;2023-11-19T12:59:35;25.92;;;6.28;;
9964;SDS011;5023;53.554;9.964;2023-11-19T13:04:37;21.25;;;6.25;;
9964;SDS011;5023;53.554;9.964;2023-11-19T13:09:41;21.35;;;5.97;;
9964;SDS011;5023;53.554;9.964;2023-11-19T13:14:43;23.75;;;5.88;;
9964;SDS011;5023;53.554;9.964;2023-11-19T13:19:47;21.23;;;5.97;;
9964;SDS011;5023;53.554;9.964;2023-11-19T13:24:52;25.27;;;5.55;;
9964;SDS011;5023;53.554;9.964;2023-11-19T13:29:54;23.50;;;6.00;;
9964;SDS011;5023;53.554;9.964;2023-11-19T13:34:56;20.88;;;5.57;;
9964;SDS011;5023;53.554;9.964;2023-11-19T13:39:59;19.98;;;5.63;;
9964;SDS011;5023;53.554;9.964;2023-11-19T13:45:01;19.95;;;5.70;;
9964;SDS011;5023;53.554;9.964;2023-11-19T13:50:04;20.98;;;5.75;;
9964;SDS011;5023;53.554;9.964;2023-11-19T13:55:09;16.33;;;4.90;;
9964;SDS011;5023;53.554;9.964;2023-11-19T14:00:12;23.08;;;7.32;;
9964;SDS011;5023;53.554;9.964;2023-11-19T14:05:16;18.50;;;5.30;;
9964;SDS011;5023;53.554;9.964;2023-11-19T14:10:20;21.90;;;5.93;;
9964;SDS011;5023;53.554;9.964;2023-11-19T14:15:22;20.13;;;5.10;;
9964;SDS011;5023;53.554;9.964;2023-11-19T14:20:25;23.35;;;6.07;;
9964;SDS011;5023;53.554;9.964;2023-11-19T14:25:33;19.23;;;5.15;;
9964;SDS011;5023;53.554;9.964;2023-11-19T14:30:35;22.40;;;5.68;;
9964;SDS011;5023;53.554;9.964;2023-11-19T14:35:38;22.27;;;6.22;;
9964;SDS011;5023;53.554;9.964;2023-11-19T14:40:41;22.48;;;5.63;;
9964;SDS011;5023;53.554;9.964;2023-11-19T14:45:45;22.48;;;5.43;;
9964;SDS011;5023;53.554;9.964;2023-11-19T14:50:46;14.35;;;5.18;;
9964;SDS011;5023;53.554;9.964;2023-11-19T14:55:52;19.25;;;5.00;;
9964;SDS011;5023;53.554;9.964;2023-11-19T15:00:57;17.75;;;4.78;;
9964;SDS011;5023;53.554;9.964;2023-11-19T15:05:59;15.80;;;4.70;;
9964;SDS011;5023;53.554;9.964;2023-11-19T15:11:02;20.13;;;6.20;;
9964;SDS011;5023;53.554;9.964;2023-11-19T15:16:06;6.93;;;2.60;;
9964;SDS011;5023;53.554;9.964;2023-11-19T15:21:10;12.80;;;3.80;;
9964;SDS011;5023;53.554;9.964;2023-11-19T15:26:14;10.00;;;3.25;;
9964;SDS011;5023;53.554;9.964;2023-11-19T15:31:17;16.13;;;4.50;;
9964;SDS011;5023;53.554;9.964;2023-11-19T15:36:19;20.10;;;5.43;;
9964;SDS011;5023;53.554;9.964;2023-11-19T15:41:34;19.25;;;4.97;;
9964;SDS011;5023;53.554;9.964;2023-11-19T15:46:36;20.52;;;6.82;;
9964;SDS011;5023;53.554;9.964;2023-11-19T15:51:41;21.15;;;7.03;;
9964;SDS011;5023;53.554;9.964;2023-11-19T15:56:45;18.92;;;5.95;;
9964;SDS011;5023;53.554;9.964;2023-11-19T16:02:02;16.17;;;5.05;;
9964;SDS011;5023;53.554;9.964;2023-11-19T16:07:04;38.95;;;20.65;;
9964;SDS011;5023;53.554;9.964;2023-11-19T16:12:10;18.02;;;5.50;;
9964;SDS011;5023;53.554;9.964;2023-11-19T16:17:13;18.98;;;5.57;;
9964;SDS011;5023;53.554;9.964;2023-11-19T16:22:15;13.90;;;4.57;;
9964;SDS011;5023;53.554;9.964;2023-11-19T16:27:18;12.30;;;4.53;;
9964;SDS011;5023;53.554;9.964;2023-11-19T16:32:20;21.50;;;5.15;;
9964;SDS011;5023;53.554;9.964;2023-11-19T16:37:22;17.92;;;4.43;;
9964;SDS011;5023;53.554;9.964;2023-11-19T16:42:26;13.57;;;4.40;;
9964;SDS011;5023;53.554;9.964;2023-11-19T16:47:27;15.63;;;4.18;;
9964;SDS011;5023;53.554;9.964;2023-11-19T16:52:29;19.42;;;5.72;;
9964;SDS011;5023;53.554;9.964;2023-11-19T16:57:34;11.43;;;3.78;;
9964;SDS011;5023;53.554;9.964;2023-11-19T17:02:36;15.75;;;4.72;;
9964;SDS011;5023;53.554;9.964;2023-11-19T17:07:42;13.38;;;5.45;;
9964;SDS011;5023;53.554;9.964;2023-11-19T17:12:45;17.52;;;7.20;;
9964;SDS011;5023;53.554;9.964;2023-11-19T17:17:47;13.23;;;4.32;;
9964;SDS011;5023;53.554;9.964;2023-11-19T17:22:50;17.60;;;5.30;;
9964;SDS011;5023;53.554;9.964;2023-11-19T17:27:56;13.57;;;4.18;;
9964;SDS011;5023;53.554;9.964;2023-11-19T17:32:57;16.10;;;5.93;;
9964;SDS011;5023;53.554;9.964;2023-11-19T17:38:00;8.75;;;4.00;;
9964;SDS011;5023;53.554;9.964;2023-11-19T17:43:03;6.95;;;3.00;;
9964;SDS011;5023;53.554;9.964;2023-11-19T17:48:05;11.88;;;2.80;;
9964;SDS011;5023;53.554;9.964;2023-11-19T17:53:07;7.05;;;3.75;;
9964;SDS011;5023;53.554;9.964;2023-11-19T17:58:11;6.47;;;2.70;;
9964;SDS011;5023;53.554;9.964;2023-11-19T18:03:13;7.70;;;3.60;;
9964;SDS011;5023;53.554;9.964;2023-11-19T18:08:15;6.97;;;3.72;;
9964;SDS011;5023;53.554;9.964;2023-11-19T18:13:23;17.52;;;12.25;;
9964;SDS011;5023;53.554;9.964;2023-11-19T18:18:25;8.48;;;4.50;;
9964;SDS011;5023;53.554;9.964;2023-11-19T18:23:27;9.30;;;3.88;;
9964;SDS011;5023;53.554;9.964;2023-11-19T18:28:31;10.88;;;3.97;;
9964;SDS011;5023;53.554;9.964;2023-11-19T18:33:33;14.80;;;6.43;;
9964;SDS011;5023;53.554;9.964;2023-11-19T18:38:35;15.18;;;6.65;;
9964;SDS011;5023;53.554;9.964;2023-11-19T18:43:41;13.45;;;5.00;;
9964;SDS011;5023;53.554;9.964;2023-11-19T18:48:43;17.55;;;7.50;;
9964;SDS011;5023;53.554;9.964;2023-11-19T18:53:45;19.98;;;5.88;;
9964;SDS011;5023;53.554;9.964;2023-11-19T18:58:48;24.48;;;6.45;;
9964;SDS011;5023;53.554;9.964;2023-11-19T19:03:50;18.95;;;6.32;;
9964;SDS011;5023;53.554;9.964;2023-11-19T19:08:52;16.23;;;5.22;;
9964;SDS011;5023;53.554;9.964;2023-11-19T19:13:56;19.42;;;7.80;;
9964;SDS011;5023;53.554;9.964;2023-11-19T19:18:58;20.90;;;7.32;;
9964;SDS011;5023;53.554;9.964;2023-11-19T19:24:00;22.52;;;6.80;;
9964;SDS011;5023;53.554;9.964;2023-11-19T19:29:06;20.20;;;7.80;;
9964;SDS011;5023;53.554;9.964;2023-11-19T19:34:10;17.40;;;7.15;;
9964;SDS011;5023;53.554;9.964;2023-11-19T19:39:14;17.50;;;7.13;;
9964;SDS011;5023;53.554;9.964;2023-11-19T19:44:19;15.38;;;6.53;;
9964;SDS011;5023;53.554;9.964;2023-11-19T19:49:22;14.88;;;6.13;;
9964;SDS011;5023;53.554;9.964;2023-11-19T19:54:25;14.45;;;6.93;;
9964;SDS011;5023;53.554;9.964;2023-11-19T19:59:31;19.02;;;7.00;;
9964;SDS011;5023;53.554;9.964;2023-11-19T20:04:33;11.57;;;6.55;;
9964;SDS011;5023;53.554;9.964;2023-11-19T20:09:39;12.98;;;5.50;;
9964;SDS011;5023;53.554;9.964;2023-11-19T20:14:43;20.92;;;6.00;;
9964;SDS011;5023;53.554;9.964;2023-11-19T20:19:45;12.48;;;6.35;;
9964;SDS011;5023;53.554;9.964;2023-11-19T20:24:47;16.52;;;8.82;;
9964;SDS011;5023;53.554;9.964;2023-11-19T20:29:50;19.48;;;6.93;;
9964;SDS011;5023;53.554;9.964;2023-11-19T20:34:53;15.85;;;7.20;;
9964;SDS011;5023;53.554;9.964;2023-11-19T20:39:55;19.90;;;7.22;;
9964;SDS011;5023;53.554;9.964;2023-11-19T20:44:59;16.65;;;7.15;;
9964;SDS011;5023;53.554;9.964;2023-11-19T20:50:01;15.93;;;7.15;;
9964;SDS011;5023;53.554;9.964;2023-11-19T20:55:05;21.67;;;7.85;;
9964;SDS011;5023;53.554;9.964;2023-11-19T21:00:11;19.92;;;7.82;;
9964;SDS011;5023;53.554;9.964;2023-11-19T21:05:14;16.15;;;7.18;;
9964;SDS011;5023;53.554;9.964;2023-11-19T21:10:16;19.02;;;7.60;;
9964;SDS011;5023;53.554;9.964;2023-11-19T21:15:20;19.15;;;7.75;;
9964;SDS011;5023;53.554;9.964;2023-11-19T21:20:22;23.15;;;8.90;;
9964;SDS011;5023;53.554;9.964;2023-11-19T21:25:25;18.00;;;6.95;;
9964;SDS011;5023;53.554;9.964;2023-11-19T21:30:28;17.23;;;9.05;;
9964;SDS011;5023;53.554;9.964;2023-11-19T21:35:31;19.48;;;7.47;;
9964;SDS011;5023;53.554;9.964;2023-11-19T21:40:33;17.02;;;7.55;;
9964;SDS011;5023;53.554;9.964;2023-11-19T21:45:37;18.35;;;8.45;;
9964;SDS011;5023;53.554;9.964;2023-11-19T21:50:40;15.05;;;7.43;;
9964;SDS011;5023;53.554;9.964;2023-11-19T21:55:42;18.85;;;8.20;;
9964;SDS011;5023;53.554;9.964;2023-11-19T22:00:46;26.05;;;12.75;;
9964;SDS011;5023;53.554;9.964;2023-11-19T22:05:48;18.35;;;9.77;;
9964;SDS011;5023;53.554;9.964;2023-11-19T22:10:50;17.63;;;9.55;;
9964;SDS011;5023;53.554;9.964;2023-11-19T22:15:53;18.15;;;11.00;;
9964;SDS011;5023;53.554;9.964;2023-11-19T22:20:55;21.40;;;9.63;;
9964;SDS011;5023;53.554;9.964;2023-11-19T22:25:57;17.23;;;10.13;;
9964;SDS011;5023;53.554;9.964;2023-11-19T22:31:01;19.05;;;10.88;;
9964;SDS011;5023;53.554;9.964;2023-11-19T22:36:04;18.83;;;12.45;;
9964;SDS011;5023;53.554;9.964;2023-11-19T22:41:06;22.85;;;13.18;;
9964;SDS011;5023;53.554;9.964;2023-11-19T22:46:10;13.73;;;9.07;;
9964;SDS011;5023;53.554;9.964;2023-11-19T22:51:12;19.20;;;9.98;;
9964;SDS011;5023;53.554;9.964;2023-11-19T22:56:15;12.63;;;9.25;;
9964;SDS011;5023;53.554;9.964;2023-11-19T23:01:18;12.65;;;8.68;;
9964;SDS011;5023;53.554;9.964;2023-11-19T23:06:20;11.20;;;8.40;;
9964;SDS011;5023;53.554;9.964;2023-11-19T23:11:22;13.05;;;7.85;;
9964;SDS011;5023;53.554;9.964;2023-11-19T23:16:26;13.90;;;9.18;;
9964;SDS011;5023;53.554;9.964;2023-11-19T23:21:28;17.10;;;12.60;;
9964;SDS011;5023;53.554;9.964;2023-11-19T23:26:30;48.00;;;39.85;;
9964;SDS011;5023;53.554;9.964;2023-11-19T23:31:35;38.50;;;27.73;;
9964;SDS011;5023;53.554;9.964;2023-11-19T23:36:37;36.60;;;23.38;;
9964;SDS011;5023;53.554;9.964;2023-11-19T23:41:39;14.93;;;10.18;;
9964;SDS011;5023;53.554;9.964;2023-11-19T23:46:42;36.08;;;19.65;;
9964;SDS011;5023;53.554;9.964;2023-11-19T23:51:44;16.13;;;10.23;;
9964;SDS011;5023;53.554;9.964;2023-11-19T23:56:46;14.77;;;9.25;;
